Orlando, Florida
Traffic Map
Current Weather Conditions
Orlando, Florida
Clear
Clear
13°
Feels Like: 13°
Wind Chill: 13° Ceiling: Unl
Heat Index: 13° Visibility: 10mi
Dew Point: Wind: 6mph
Humidity: 69% Direction: 230° (SW)
Pressure: 30in Gusts: 0mph
Raw Report DataKORL 260153Z 23005KT 10SM CLR 13/07 A3000 RMK AO2 SLP162 T01280072
Traffic Incident Summary
Active as of:
Severity:
Category:
InformationThere was an issue retrieving the traffic information for this location. Please try a different location or try again shortly.
Advertisements
Track Severe Weather on mobile